Time;durP1;ratioP1;P1;durP2;ratioP2;P2;SDS_P1;SDS_P2;PMS_P1;PMS_P2;Temp;Humidity;BMP_temperature;BMP_pressure;BME280_temperature;BME280_humidity;BME280_pressure;Samples;Min_cycle;Max_cycle;Signal;HPM_P1;HPM_P2
2023/07/15 00:00:37;;;;;;;4.18;3.08;;;17.50;99.90;;;;;;5061913;28;20029;-32
2023/07/15 00:03:03;;;;;;;3.17;2.60;;;17.30;99.90;;;;;;5060222;28;20052;-30
2023/07/15 00:05:35;;;;;;;3.13;2.80;;;17.30;99.90;;;;;;5063124;28;20115;-30
2023/07/15 00:08:05;;;;;;;4.25;3.10;;;17.10;99.90;;;;;;5056760;28;20547;-31
2023/07/15 00:10:33;;;;;;;3.20;2.92;;;17.20;99.90;;;;;;5060402;28;20033;-31
2023/07/15 00:12:59;;;;;;;3.65;3.33;;;17.30;99.90;;;;;;5065747;28;20564;-34
2023/07/15 00:15:26;;;;;;;3.58;3.28;;;17.20;99.90;;;;;;5059261;28;20390;-30
2023/07/15 00:17:52;;;;;;;5.95;3.40;;;17.30;99.90;;;;;;5062257;28;20056;-40
2023/07/15 00:20:19;;;;;;;3.50;3.20;;;17.20;99.90;;;;;;5053348;28;20037;-41
2023/07/15 00:22:45;;;;;;;3.53;2.90;;;17.20;99.90;;;;;;5063530;28;20021;-38
2023/07/15 00:25:20;;;;;;;4.10;3.08;;;17.30;99.90;;;;;;5058211;28;20033;-39
2023/07/15 00:27:46;;;;;;;5.50;3.10;;;17.30;99.90;;;;;;5057764;28;20021;-40
2023/07/15 00:30:17;;;;;;;3.63;3.22;;;17.30;99.90;;;;;;5062530;28;20032;-41
2023/07/15 00:32:46;;;;;;;4.38;2.90;;;17.30;99.90;;;;;;5057015;28;20040;-40
2023/07/15 00:35:28;;;;;;;3.42;2.88;;;17.40;99.90;;;;;;5053038;28;20044;-40
2023/07/15 00:37:55;;;;;;;3.15;2.80;;;17.40;99.90;;;;;;5059673;28;20100;-40
2023/07/15 00:40:20;;;;;;;2.83;2.63;;;17.40;99.90;;;;;;5061148;28;20090;-41
2023/07/15 00:43:24;;;;;;;3.50;2.80;;;17.30;99.90;;;;;;5064456;28;20021;-37
2023/07/15 00:46:18;;;;;;;4.63;2.92;;;17.20;99.90;;;;;;5057428;28;20401;-41
2023/07/15 00:48:58;;;;;;;4.78;3.20;;;17.20;99.90;;;;;;5055257;28;20490;-41
2023/07/15 00:51:25;;;;;;;5.30;3.00;;;17.20;99.90;;;;;;5060603;28;20488;-38
2023/07/15 00:53:56;;;;;;;3.97;2.53;;;17.20;99.90;;;;;;5055218;28;20041;-39
2023/07/15 00:56:22;;;;;;;2.92;2.50;;;17.20;99.90;;;;;;5060672;28;20200;-41
2023/07/15 00:58:50;;;;;;;4.38;2.80;;;17.20;99.90;;;;;;5080898;28;20108;-41
2023/07/15 01:01:15;;;;;;;3.63;3.03;;;17.20;99.90;;;;;;5059194;28;20055;-41
2023/07/15 01:03:43;;;;;;;7.03;2.67;;;17.00;99.90;;;;;;5062157;28;20078;-40
2023/07/15 01:06:09;;;;;;;4.28;3.20;;;17.00;99.90;;;;;;5067202;28;20025;-39
2023/07/15 01:08:34;;;;;;;3.92;3.10;;;16.90;99.90;;;;;;5062659;28;20042;-41
2023/07/15 01:11:00;;;;;;;3.22;2.90;;;16.70;99.90;;;;;;5064484;28;20036;-41
2023/07/15 01:13:26;;;;;;;2.90;2.50;;;16.70;99.90;;;;;;5074677;28;20068;-40
2023/07/15 01:15:51;;;;;;;3.72;2.75;;;16.70;99.90;;;;;;5065546;28;20063;-40
2023/07/15 01:18:17;;;;;;;3.17;2.97;;;16.60;99.90;;;;;;5059135;28;20113;-39
2023/07/15 01:20:42;;;;;;;3.13;2.75;;;16.70;99.90;;;;;;5060029;28;20028;-41
2023/07/15 01:23:08;;;;;;;3.72;3.20;;;16.70;99.90;;;;;;5064616;28;20070;-41
2023/07/15 01:25:34;;;;;;;3.38;3.05;;;16.80;99.90;;;;;;5061069;28;20033;-39
2023/07/15 01:27:59;;;;;;;2.92;2.72;;;16.70;99.90;;;;;;5058905;28;20513;-41
2023/07/15 01:30:25;;;;;;;2.70;2.50;;;16.70;99.90;;;;;;5063093;28;20414;-40
2023/07/15 01:32:50;;;;;;;16.33;2.85;;;16.70;99.90;;;;;;5063093;28;20110;-38
2023/07/15 01:35:16;;;;;;;3.03;2.22;;;16.20;99.90;;;;;;5064417;28;20025;-39
2023/07/15 01:37:42;;;;;;;2.78;2.35;;;16.20;99.90;;;;;;5064347;28;20035;-41
2023/07/15 01:40:09;;;;;;;2.15;2.00;;;16.20;99.90;;;;;;5060731;28;20025;-41
2023/07/15 01:42:35;;;;;;;2.60;2.42;;;16.00;99.90;;;;;;5059353;28;20024;-40
2023/07/15 01:45:02;;;;;;;4.70;2.92;;;16.10;99.90;;;;;;5062220;28;20043;-40
2023/07/15 01:47:28;;;;;;;5.45;2.50;;;16.20;99.90;;;;;;5062699;28;20108;-41
2023/07/15 01:49:53;;;;;;;3.03;2.72;;;16.20;99.90;;;;;;5064209;28;20107;-39
2023/07/15 01:52:19;;;;;;;6.63;2.65;;;16.30;99.90;;;;;;5063651;28;20044;-40
2023/07/15 01:54:45;;;;;;;3.45;2.53;;;16.40;99.90;;;;;;5060312;28;20106;-40
2023/07/15 01:57:11;;;;;;;2.47;2.28;;;16.40;99.90;;;;;;5064281;28;20651;-41
2023/07/15 01:59:36;;;;;;;2.67;2.47;;;16.40;99.90;;;;;;5063268;28;20020;-41
2023/07/15 02:02:02;;;;;;;2.50;2.30;;;16.40;99.90;;;;;;5062175;28;20040;-41
2023/07/15 02:04:28;;;;;;;6.45;2.35;;;16.40;99.90;;;;;;5065511;28;20414;-41
2023/07/15 02:06:53;;;;;;;3.28;2.97;;;16.20;99.90;;;;;;5059722;28;20028;-41
2023/07/15 02:09:19;;;;;;;4.07;3.17;;;16.00;99.90;;;;;;5060915;28;20032;-38
2023/07/15 02:11:44;;;;;;;3.55;3.10;;;15.90;99.90;;;;;;5059779;28;20754;-39
2023/07/15 02:14:10;;;;;;;6.13;3.75;;;15.90;99.90;;;;;;5064313;28;20567;-40
2023/07/15 02:16:36;;;;;;;4.35;3.30;;;15.80;99.90;;;;;;5065589;28;20029;-37
2023/07/15 02:19:02;;;;;;;5.10;3.40;;;15.90;99.90;;;;;;5063692;28;20674;-41
2023/07/15 02:21:28;;;;;;;3.33;3.03;;;16.00;99.90;;;;;;5061834;28;20021;-41
2023/07/15 02:23:53;;;;;;;4.18;2.92;;;16.10;99.90;;;;;;5059510;28;20051;-40
2023/07/15 02:26:19;;;;;;;3.70;3.20;;;16.20;99.90;;;;;;5057811;28;20039;-38
2023/07/15 02:28:45;;;;;;;3.75;3.00;;;16.20;99.90;;;;;;5061111;28;20032;-39
2023/07/15 02:31:11;;;;;;;3.55;2.80;;;16.20;99.90;;;;;;5064776;28;20040;-40
2023/07/15 02:33:36;;;;;;;1.92;1.83;;;16.20;99.90;;;;;;5061272;28;20112;-41
2023/07/15 02:36:04;;;;;;;2.92;1.58;;;16.20;99.90;;;;;;5063068;28;20097;-41
2023/07/15 02:38:31;;;;;;;2.45;1.85;;;16.10;99.90;;;;;;5060641;28;20028;-34
2023/07/15 02:40:56;;;;;;;1.90;1.80;;;16.00;99.90;;;;;;5064600;28;20036;-35
2023/07/15 02:43:22;;;;;;;2.00;1.90;;;16.00;99.90;;;;;;5063017;28;20043;-33
2023/07/15 02:45:51;;;;;;;2.90;2.22;;;16.00;99.90;;;;;;5064352;28;20039;-33
2023/07/15 02:48:19;;;;;;;2.10;2.00;;;16.00;99.90;;;;;;5058939;28;20028;-34
2023/07/15 02:50:45;;;;;;;3.08;2.53;;;16.00;99.90;;;;;;5062612;28;20028;-35
2023/07/15 02:53:11;;;;;;;3.30;2.47;;;16.00;99.90;;;;;;5059526;28;20044;-33
2023/07/15 02:55:37;;;;;;;3.17;2.58;;;16.10;99.90;;;;;;5058730;28;20036;-33
2023/07/15 02:58:03;;;;;;;3.83;2.92;;;16.10;99.90;;;;;;5064058;28;20013;-33
2023/07/15 03:00:28;;;;;;;3.85;2.97;;;16.10;99.90;;;;;;5063336;28;20032;-32
2023/07/15 03:02:54;;;;;;;2.83;2.63;;;16.10;99.90;;;;;;5056921;28;20623;-33
2023/07/15 03:05:20;;;;;;;3.67;2.78;;;16.20;99.90;;;;;;5065879;28;20093;-33
2023/07/15 03:07:49;;;;;;;3.40;3.10;;;16.10;99.90;;;;;;5060311;28;20029;-34
2023/07/15 03:10:15;;;;;;;3.67;3.38;;;16.10;99.90;;;;;;5065744;28;20085;-34
2023/07/15 03:12:44;;;;;;;4.07;3.00;;;16.10;99.90;;;;;;5061476;28;20032;-32
2023/07/15 03:15:09;;;;;;;3.65;3.35;;;16.10;99.90;;;;;;5060208;28;20434;-33
2023/07/15 03:17:36;;;;;;;3.95;3.10;;;16.20;99.90;;;;;;5059092;28;20111;-32
2023/07/15 03:20:19;;;;;;;5.97;3.20;;;16.10;99.90;;;;;;5061543;28;20024;-33
2023/07/15 03:22:49;;;;;;;3.85;3.40;;;16.10;99.90;;;;;;5062213;28;20021;-35
2023/07/15 03:25:16;;;;;;;5.47;3.25;;;16.00;99.90;;;;;;5060564;28;20032;-34
2023/07/15 03:27:43;;;;;;;4.25;3.10;;;15.90;99.90;;;;;;5059415;28;20090;-33
2023/07/15 03:30:09;;;;;;;3.38;3.08;;;15.70;99.90;;;;;;5060489;28;20038;-33
2023/07/15 03:32:36;;;;;;;4.28;3.85;;;15.60;99.90;;;;;;5061537;28;20047;-36
2023/07/15 03:35:03;;;;;;;3.90;3.50;;;15.60;99.90;;;;;;5058709;28;20124;-32
2023/07/15 03:37:32;;;;;;;5.82;4.22;;;15.50;99.90;;;;;;5056846;28;20059;-33
2023/07/15 03:39:58;;;;;;;5.78;3.42;;;15.60;99.90;;;;;;5059759;28;20060;-33
2023/07/15 03:42:25;;;;;;;5.13;3.20;;;15.60;99.90;;;;;;5057180;28;20062;-32
2023/07/15 03:44:52;;;;;;;3.55;2.58;;;15.60;99.90;;;;;;5057635;28;20427;-34
2023/07/15 03:47:18;;;;;;;2.53;2.25;;;15.50;99.90;;;;;;5061020;28;20020;-32
2023/07/15 03:49:44;;;;;;;2.42;2.22;;;15.30;99.90;;;;;;5057561;28;20475;-32
2023/07/15 03:52:10;;;;;;;2.40;2.20;;;15.20;99.90;;;;;;5062060;28;20111;-33
2023/07/15 03:54:36;;;;;;;1.88;1.67;;;15.20;99.90;;;;;;5057180;28;20072;-35
2023/07/15 03:57:02;;;;;;;3.15;2.35;;;15.30;99.90;;;;;;5060281;28;20111;-33
2023/07/15 03:59:28;;;;;;;2.50;2.30;;;15.40;99.90;;;;;;5061781;28;20025;-33
2023/07/15 04:01:54;;;;;;;2.30;2.10;;;15.60;99.90;;;;;;5059216;28;20151;-32
2023/07/15 04:04:19;;;;;;;3.53;2.70;;;15.60;99.90;;;;;;5064186;28;20111;-34
2023/07/15 04:06:45;;;;;;;5.13;2.60;;;15.80;99.90;;;;;;5076117;28;20402;-33
2023/07/15 04:09:12;;;;;;;2.85;2.42;;;15.80;99.90;;;;;;5058022;28;20035;-32
2023/07/15 04:11:39;;;;;;;3.08;2.78;;;16.00;99.90;;;;;;5058540;28;20112;-33
2023/07/15 04:14:05;;;;;;;3.17;2.63;;;16.00;99.90;;;;;;5056085;28;20033;-34
2023/07/15 04:16:30;;;;;;;6.22;2.78;;;16.10;99.90;;;;;;5058823;28;20045;-33
2023/07/15 04:18:56;;;;;;;3.30;3.00;;;16.20;99.90;;;;;;5064948;28;20564;-33
2023/07/15 04:21:22;;;;;;;3.90;2.67;;;16.30;99.90;;;;;;5057468;28;20086;-33
2023/07/15 04:23:48;;;;;;;2.90;2.38;;;16.40;99.90;;;;;;5059894;28;20104;-36
2023/07/15 04:26:19;;;;;;;2.83;2.33;;;16.40;99.90;;;;;;5063643;28;20055;-33
2023/07/15 04:28:44;;;;;;;3.83;2.08;;;16.50;99.90;;;;;;5060402;28;20094;-33
2023/07/15 04:31:10;;;;;;;2.08;1.98;;;16.50;99.90;;;;;;5060710;28;20036;-34
2023/07/15 04:33:36;;;;;;;2.72;2.10;;;16.60;99.90;;;;;;5067155;28;20035;-33
2023/07/15 04:36:02;;;;;;;3.10;2.10;;;16.70;99.90;;;;;;5062858;28;20040;-34
2023/07/15 04:38:28;;;;;;;3.50;2.53;;;16.70;99.90;;;;;;5062505;28;20025;-33
2023/07/15 04:40:54;;;;;;;6.22;2.83;;;16.70;99.90;;;;;;5061926;28;20403;-35
2023/07/15 04:43:22;;;;;;;2.60;2.40;;;16.90;99.90;;;;;;5065611;28;20032;-33
2023/07/15 04:45:49;;;;;;;3.17;2.40;;;16.80;99.90;;;;;;5067354;28;20103;-32
2023/07/15 04:48:14;;;;;;;2.67;2.35;;;17.00;99.90;;;;;;5064127;28;20051;-32
2023/07/15 04:50:40;;;;;;;3.20;2.90;;;17.10;99.90;;;;;;5066415;28;20456;-32
2023/07/15 04:53:06;;;;;;;3.33;2.60;;;17.10;99.90;;;;;;5060526;28;20037;-32
2023/07/15 04:55:32;;;;;;;3.65;3.35;;;17.10;99.90;;;;;;5060244;28;20300;-32
2023/07/15 04:57:57;;;;;;;3.03;2.80;;;17.10;99.90;;;;;;5063918;28;20478;-33
2023/07/15 05:00:23;;;;;;;3.17;2.60;;;17.00;99.90;;;;;;5063222;28;20660;-30
2023/07/15 05:02:49;;;;;;;3.33;2.90;;;17.10;99.90;;;;;;5062762;28;20025;-31
2023/07/15 05:05:15;;;;;;;3.55;3.17;;;17.10;99.90;;;;;;5064707;28;20089;-30
2023/07/15 05:07:41;;;;;;;4.18;3.78;;;17.20;99.90;;;;;;5067664;28;20528;-34
2023/07/15 05:10:07;;;;;;;4.82;3.42;;;17.30;99.90;;;;;;5061933;28;20024;-32
2023/07/15 05:12:33;;;;;;;4.35;3.88;;;17.40;99.90;;;;;;5066846;28;20052;-31
2023/07/15 05:14:58;;;;;;;4.90;3.33;;;17.50;99.90;;;;;;5062628;28;20149;-29
2023/07/15 05:17:25;;;;;;;4.00;3.60;;;17.50;99.90;;;;;;5062281;28;20056;-33
2023/07/15 05:19:50;;;;;;;4.45;3.80;;;17.70;99.90;;;;;;5063242;28;20021;-31
2023/07/15 05:22:18;;;;;;;4.50;4.10;;;17.80;99.90;;;;;;5061941;28;20020;-31
2023/07/15 05:24:44;;;;;;;4.30;3.90;;;17.90;99.90;;;;;;5062499;28;20078;-33
2023/07/15 05:27:10;;;;;;;4.18;3.78;;;18.00;99.90;;;;;;5068824;28;20025;-33
2023/07/15 05:29:36;;;;;;;5.30;3.78;;;18.10;99.90;;;;;;5065010;28;20025;-32
2023/07/15 05:32:01;;;;;;;4.07;3.67;;;18.20;99.90;;;;;;5060003;28;20033;-31
2023/07/15 05:34:27;;;;;;;5.13;3.83;;;18.30;99.90;;;;;;5067840;28;20051;-31
2023/07/15 05:36:53;;;;;;;3.90;3.50;;;18.40;99.90;;;;;;5062373;28;20028;-30
2023/07/15 05:39:19;;;;;;;6.18;4.10;;;18.40;99.90;;;;;;5067043;28;20119;-30
2023/07/15 05:41:45;;;;;;;4.43;4.03;;;18.60;99.90;;;;;;5063590;28;20522;-30
2023/07/15 05:44:10;;;;;;;4.20;3.78;;;18.70;99.90;;;;;;5064968;28;20025;-30
2023/07/15 05:46:37;;;;;;;4.55;4.15;;;18.80;99.90;;;;;;5064992;28;20044;-33
2023/07/15 05:49:04;;;;;;;7.07;4.10;;;18.80;99.90;;;;;;5063106;28;20035;-30
2023/07/15 05:51:31;;;;;;;4.72;4.22;;;18.90;99.90;;;;;;5062949;28;20112;-31
2023/07/15 05:53:57;;;;;;;5.40;4.05;;;19.00;99.90;;;;;;5063929;28;20048;-33
2023/07/15 05:56:23;;;;;;;6.13;4.15;;;19.10;99.90;;;;;;5060732;28;20052;-30
2023/07/15 05:58:49;;;;;;;5.30;4.00;;;19.30;99.90;;;;;;5068628;28;20493;-31
2023/07/15 06:01:15;;;;;;;4.13;3.72;;;19.40;99.90;;;;;;5074495;28;20036;-33
2023/07/15 06:03:40;;;;;;;4.30;3.83;;;19.60;99.90;;;;;;5063181;28;20377;-30
2023/07/15 06:06:07;;;;;;;5.25;3.72;;;19.70;99.90;;;;;;5062113;28;20472;-33
2023/07/15 06:08:32;;;;;;;4.95;3.72;;;19.90;99.90;;;;;;5063180;28;20420;-41
2023/07/15 06:10:58;;;;;;;4.60;4.13;;;20.10;99.90;;;;;;5060657;28;20089;-40
2023/07/15 06:13:24;;;;;;;4.80;4.40;;;20.20;99.90;;;;;;5063411;28;20394;-41
2023/07/15 06:15:50;;;;;;;4.13;3.70;;;20.30;99.90;;;;;;5058760;28;20111;-34
2023/07/15 06:18:16;;;;;;;4.43;4.03;;;20.50;99.90;;;;;;5059238;28;20505;-40
2023/07/15 06:20:42;;;;;;;4.93;4.18;;;20.70;99.90;;;;;;5064778;28;20486;-36
2023/07/15 06:23:08;;;;;;;4.70;3.90;;;20.90;99.90;;;;;;5059371;28;20017;-41
2023/07/15 06:25:34;;;;;;;4.78;3.75;;;21.10;99.90;;;;;;5065063;28;20044;-41
2023/07/15 06:27:59;;;;;;;3.70;3.40;;;21.20;99.90;;;;;;5066133;28;20037;-40
2023/07/15 06:30:26;;;;;;;4.05;3.65;;;21.40;99.90;;;;;;5059464;28;20090;-41
2023/07/15 06:32:52;;;;;;;16.02;4.28;;;21.50;99.90;;;;;;5063902;28;20032;-41
2023/07/15 06:35:17;;;;;;;5.25;3.78;;;21.80;99.90;;;;;;5062485;28;20035;-41
2023/07/15 06:37:46;;;;;;;4.03;3.40;;;21.90;99.90;;;;;;5060374;28;20104;-42
2023/07/15 06:40:14;;;;;;;4.25;3.67;;;22.00;99.90;;;;;;5062643;28;20052;-42
2023/07/15 06:42:40;;;;;;;;;;;22.30;99.90;;;;;;5059936;28;20422;-41
2023/07/15 06:45:06;;;;;;;4.40;3.67;;;22.50;99.90;;;;;;5062802;28;20109;-41
2023/07/15 06:47:31;;;;;;;3.65;3.35;;;22.60;99.90;;;;;;5061455;28;20055;-38
2023/07/15 06:49:57;;;;;;;4.90;3.70;;;22.80;99.90;;;;;;5060381;28;20036;-41
2023/07/15 06:52:23;;;;;;;7.07;3.50;;;22.90;99.90;;;;;;5064137;28;20065;-41
2023/07/15 06:54:50;;;;;;;3.33;3.08;;;23.10;99.90;;;;;;5059855;28;20506;-35
2023/07/15 06:57:16;;;;;;;3.75;3.25;;;23.20;99.90;;;;;;5060643;28;20113;-41
2023/07/15 06:59:41;;;;;;;5.22;3.13;;;23.50;99.90;;;;;;5063520;28;20083;-41
2023/07/15 07:02:07;;;;;;;3.17;2.88;;;23.70;99.90;;;;;;5059550;28;20272;-41
2023/07/15 07:04:33;;;;;;;3.75;3.45;;;23.80;99.90;;;;;;5063426;28;20020;-42
2023/07/15 07:06:58;;;;;;;3.38;3.08;;;24.00;99.90;;;;;;5063830;28;20017;-40
2023/07/15 07:09:24;;;;;;;3.60;2.88;;;24.20;99.90;;;;;;5057397;28;20494;-42
2023/07/15 07:11:50;;;;;;;3.13;2.90;;;24.40;99.90;;;;;;5061311;28;20028;-41
2023/07/15 07:14:16;;;;;;;3.30;2.92;;;24.50;99.90;;;;;;5061738;28;20127;-39
2023/07/15 07:16:41;;;;;;;3.25;2.67;;;24.70;99.90;;;;;;5058128;28;20024;-42
2023/07/15 07:19:07;;;;;;;3.05;2.85;;;25.00;99.90;;;;;;5066107;28;20034;-32
2023/07/15 07:21:33;;;;;;;2.78;2.58;;;25.00;99.90;;;;;;5060651;28;20035;-33
2023/07/15 07:23:59;;;;;;;3.15;2.70;;;25.00;99.90;;;;;;5056073;28;20028;-32
2023/07/15 07:26:24;;;;;;;3.05;2.75;;;25.10;99.90;;;;;;5062302;28;20103;-33
2023/07/15 07:28:50;;;;;;;2.90;2.55;;;25.30;99.90;;;;;;5062342;28;20556;-33
2023/07/15 07:31:18;;;;;;;3.53;2.90;;;25.50;99.90;;;;;;5058409;28;20120;-36
2023/07/15 07:33:44;;;;;;;4.22;2.30;;;25.60;99.90;;;;;;5061555;28;20114;-33
2023/07/15 07:36:10;;;;;;;3.22;2.42;;;25.90;99.90;;;;;;5062100;28;20020;-35
2023/07/15 07:38:36;;;;;;;2.33;2.13;;;25.90;99.90;;;;;;5059524;28;20048;-33
2023/07/15 07:41:10;;;;;;;2.72;2.53;;;26.00;99.90;;;;;;5060411;28;20025;-36
2023/07/15 07:43:37;;;;;;;2.60;2.40;;;25.90;99.90;;;;;;5059745;28;20056;-32
2023/07/15 07:46:04;;;;;;;2.97;2.67;;;26.10;99.90;;;;;;5060732;28;20497;-33
2023/07/15 07:48:30;;;;;;;;;;;26.40;99.90;;;;;;5059749;28;20035;-34
2023/07/15 07:50:56;;;;;;;3.00;2.80;;;26.80;99.90;;;;;;5057655;28;19909;-32
2023/07/15 07:53:23;;;;;;;4.15;2.88;;;27.00;99.90;;;;;;5059751;28;20887;-32
2023/07/15 07:55:50;;;;;;;4.50;2.70;;;26.70;99.90;;;;;;5060659;28;20039;-33
2023/07/15 07:58:16;;;;;;;2.85;2.58;;;26.60;99.90;;;;;;5057901;28;20024;-32
2023/07/15 08:00:41;;;;;;;4.72;3.03;;;26.70;99.90;;;;;;5060981;28;20081;-34
2023/07/15 08:03:07;;;;;;;2.78;2.58;;;27.00;99.90;;;;;;5054327;28;20800;-32
2023/07/15 08:05:32;;;;;;;2.83;2.63;;;27.20;99.90;;;;;;5060746;28;20032;-34
2023/07/15 08:07:58;;;;;;;3.28;2.70;;;27.30;99.90;;;;;;5059848;28;20539;-31
2023/07/15 08:10:24;;;;;;;2.67;2.47;;;27.50;99.90;;;;;;5057610;28;20037;-32
2023/07/15 08:12:49;;;;;;;3.05;2.80;;;27.60;99.90;;;;;;5065846;28;20043;-35
2023/07/15 08:15:15;;;;;;;2.80;2.60;;;27.80;99.90;;;;;;5061128;28;20032;-33
2023/07/15 08:17:41;;;;;;;6.00;2.70;;;27.80;99.90;;;;;;5059074;28;20029;-32
2023/07/15 08:20:08;;;;;;;2.65;2.45;;;28.20;99.90;;;;;;5063196;28;20024;-32
2023/07/15 08:22:34;;;;;;;3.85;2.65;;;28.20;99.90;;;;;;5062823;28;20096;-34
2023/07/15 08:24:59;;;;;;;4.13;2.47;;;28.40;99.90;;;;;;5078256;28;20052;-38
2023/07/15 08:27:25;;;;;;;4.55;2.65;;;28.50;99.90;;;;;;5063336;28;20398;-39
2023/07/15 08:29:51;;;;;;;3.33;2.47;;;28.50;99.90;;;;;;5061958;28;20037;-40
2023/07/15 08:32:16;;;;;;;4.25;2.53;;;28.80;99.90;;;;;;5070573;28;20028;-40
2023/07/15 08:35:03;;;;;;;3.40;2.83;;;29.20;99.90;;;;;;5056864;28;20449;-41
2023/07/15 08:37:29;;;;;;;3.10;2.80;;;29.30;99.90;;;;;;5059492;28;20039;-41
2023/07/15 08:39:54;;;;;;;3.63;2.53;;;29.60;99.90;;;;;;5063854;28;20270;-41
2023/07/15 08:42:20;;;;;;;3.05;2.72;;;29.50;99.90;;;;;;5059643;28;20078;-40
2023/07/15 08:44:50;;;;;;;2.97;2.55;;;29.40;99.90;;;;;;5061164;28;20033;-41
2023/07/15 08:47:23;;;;;;;2.90;2.22;;;29.50;99.90;;;;;;5062506;28;20044;-42
2023/07/15 08:49:51;;;;;;;2.42;2.22;;;29.70;99.90;;;;;;5060224;28;20047;-40
2023/07/15 08:52:17;;;;;;;;;;;29.60;99.90;;;;;;5061438;28;20036;-38
2023/07/15 08:54:43;;;;;;;3.90;3.35;;;29.80;99.90;;;;;;5060728;28;19968;-42
2023/07/15 08:57:10;;;;;;;2.80;2.10;;;30.00;99.90;;;;;;5056184;28;20031;-39
2023/07/15 08:59:36;;;;;;;3.92;2.35;;;29.90;99.90;;;;;;5061144;28;20020;-41
2023/07/15 09:02:01;;;;;;;2.38;2.20;;;29.70;99.90;;;;;;5058795;28;20083;-39
2023/07/15 09:04:27;;;;;;;3.95;2.20;;;30.10;99.90;;;;;;5061134;28;20096;-41
2023/07/15 09:06:54;;;;;;;4.95;2.28;;;29.90;99.90;;;;;;5063390;28;20028;-41
2023/07/15 09:09:36;;;;;;;;;;;30.00;99.90;;;;;;5058571;28;20725;-42
2023/07/15 09:12:04;;;;;;;3.78;2.30;;;30.00;99.90;;;;;;5061682;28;19958;-41
2023/07/15 09:14:30;;;;;;;2.58;2.05;;;29.80;99.90;;;;;;5060816;28;20043;-39
2023/07/15 09:16:58;;;;;;;2.25;2.10;;;29.80;99.90;;;;;;5053901;28;20550;-41
2023/07/15 09:19:26;;;;;;;2.78;2.22;;;29.90;99.90;;;;;;5067056;28;20017;-42
2023/07/15 09:21:54;;;;;;;2.60;2.38;;;29.90;99.90;;;;;;5063075;28;20106;-40
2023/07/15 09:24:19;;;;;;;;;;;30.00;99.90;;;;;;5061294;28;20449;-38
2023/07/15 09:26:53;;;;;;;3.50;2.40;;;30.10;99.90;;;;;;5080894;28;20027;-40
2023/07/15 09:29:21;;;;;;;3.10;2.40;;;30.20;99.90;;;;;;5063536;28;20031;-42
2023/07/15 09:31:47;;;;;;;2.72;2.22;;;30.40;99.90;;;;;;5060331;28;20113;-41
2023/07/15 09:34:13;;;;;;;2.10;2.00;;;30.30;99.90;;;;;;5066855;28;20413;-42
2023/07/15 09:36:39;;;;;;;2.95;2.10;;;30.20;99.90;;;;;;5061121;28;20036;-42
2023/07/15 09:39:15;;;;;;;3.28;2.25;;;30.30;99.90;;;;;;5065993;28;20020;-37
2023/07/15 09:41:41;;;;;;;3.25;2.10;;;30.50;99.90;;;;;;5063289;28;20490;-32
2023/07/15 09:44:08;;;;;;;3.88;2.10;;;30.70;99.90;;;;;;5057771;28;20041;-36
2023/07/15 09:46:34;;;;;;;4.75;2.05;;;30.80;99.90;;;;;;5066124;28;20435;-34
2023/07/15 09:49:00;;;;;;;3.30;1.92;;;31.00;99.90;;;;;;5059764;28;20032;-34
2023/07/15 09:51:26;;;;;;;3.97;1.98;;;31.30;99.90;;;;;;5062014;28;20496;-33
2023/07/15 09:53:56;;;;;;;3.15;2.17;;;31.60;99.90;;;;;;5063362;28;20503;-32
2023/07/15 09:56:32;;;;;;;2.35;2.00;;;31.90;99.90;;;;;;5060801;28;20051;-33
2023/07/15 09:59:09;;;;;;;3.50;2.10;;;32.20;99.90;;;;;;5063539;28;20024;-35
2023/07/15 10:01:44;;;;;;;2.95;2.05;;;32.40;99.90;;;;;;5071978;28;20043;-35
2023/07/15 10:04:31;;;;;;;2.20;1.80;;;32.50;99.90;;;;;;5083925;28;20023;-32
2023/07/15 10:06:57;;;;;;;2.45;1.95;;;32.50;99.90;;;;;;5083983;28;20031;-33
2023/07/15 10:09:23;;;;;;;1.95;1.85;;;32.50;99.90;;;;;;5082455;28;20036;-32
2023/07/15 10:11:51;;;;;;;2.17;2.00;;;32.00;99.90;;;;;;5082163;28;20413;-33
2023/07/15 10:14:19;;;;;;;3.47;1.75;;;32.00;99.90;;;;;;5083803;28;20278;-35
2023/07/15 10:16:44;;;;;;;;;;;32.10;99.90;;;;;;5080234;28;20039;-36
2023/07/15 10:19:40;;;;;;;1.70;1.60;;;31.90;99.90;;;;;;5083934;28;19908;-35
2023/07/15 10:22:06;;;;;;;2.60;2.20;;;31.80;99.90;;;;;;5077515;28;20090;-33
2023/07/15 10:24:33;;;;;;;1.90;1.70;;;31.70;99.90;;;;;;5078860;28;20401;-36
2023/07/15 10:27:07;;;;;;;2.00;1.80;;;32.40;99.90;;;;;;5085110;28;20012;-34
2023/07/15 10:29:32;;;;;;;2.47;1.88;;;32.20;99.90;;;;;;5083110;28;20409;-32
2023/07/15 10:32:08;;;;;;;2.13;1.92;;;31.80;99.90;;;;;;5066972;28;20436;-32
2023/07/15 10:34:39;;;;;;;2.47;1.75;;;32.00;99.90;;;;;;5061883;28;20028;-33
2023/07/15 10:37:10;;;;;;;2.97;2.20;;;32.20;99.90;;;;;;5061095;28;20527;-33
2023/07/15 10:39:36;;;;;;;2.03;1.92;;;32.60;99.90;;;;;;5062227;28;20027;-32
2023/07/15 10:42:13;;;;;;;2.00;1.90;;;33.10;99.90;;;;;;5061174;28;20020;-32
2023/07/15 10:44:41;;;;;;;2.72;1.70;;;33.10;99.90;;;;;;5059228;28;20116;-34
2023/07/15 10:47:07;;;;;;;;;;;32.40;99.90;;;;;;5065576;28;20114;-41
2023/07/15 10:49:33;;;;;;;2.15;1.80;;;32.40;99.90;;;;;;5093907;28;20019;-40
2023/07/15 10:51:59;;;;;;;2.10;1.90;;;33.00;99.90;;;;;;5061751;28;20032;-42
2023/07/15 10:54:30;;;;;;;2.15;1.90;;;33.30;99.90;;;;;;5065642;28;20053;-41
2023/07/15 10:56:56;;;;;;;2.13;1.70;;;33.10;99.90;;;;;;5058090;28;20055;-34
2023/07/15 10:59:48;;;;;;;1.57;1.47;;;32.80;99.90;;;;;;5062956;28;20082;-42
2023/07/15 11:02:14;;;;;;;2.85;1.80;;;32.90;99.90;;;;;;5054417;28;20040;-40
2023/07/15 11:04:40;;;;;;;1.92;1.83;;;33.20;99.90;;;;;;5061780;28;20041;-40
2023/07/15 11:07:08;;;;;;;2.95;1.50;;;33.50;99.90;;;;;;5062683;28;20025;-42
2023/07/15 11:09:39;;;;;;;2.80;1.80;;;33.70;99.90;;;;;;5059395;28;20046;-37
2023/07/15 11:12:09;;;;;;;1.95;1.73;;;33.70;99.90;;;;;;5060096;28;20496;-41
2023/07/15 11:14:48;;;;;;;3.75;1.83;;;33.80;99.90;;;;;;5058541;28;20107;-37
2023/07/15 11:17:17;;;;;;;2.08;1.88;;;34.00;99.90;;;;;;5055508;28;20024;-42
2023/07/15 11:19:42;;;;;;;1.75;1.65;;;33.80;99.90;;;;;;5062866;28;20028;-41
2023/07/15 11:22:09;;;;;;;1.90;1.80;;;33.70;99.90;;;;;;5060733;28;20022;-41
2023/07/15 11:24:35;;;;;;;2.10;1.90;;;33.70;99.90;;;;;;5075401;28;20024;-38
2023/07/15 11:27:00;;;;;;;2.25;1.80;;;33.80;99.90;;;;;;5064410;28;20032;-41
2023/07/15 11:29:26;;;;;;;1.92;1.73;;;34.20;99.90;;;;;;5060075;28;20032;-41
2023/07/15 11:31:54;;;;;;;1.83;1.73;;;33.80;99.90;;;;;;5058812;28;20037;-40
2023/07/15 11:34:21;;;;;;;2.40;2.10;;;33.40;99.90;;;;;;5063584;28;20040;-39
2023/07/15 11:36:49;;;;;;;1.75;1.65;;;33.30;99.90;;;;;;5057806;28;20036;-41
2023/07/15 11:39:15;;;;;;;1.73;1.50;;;33.30;99.90;;;;;;5064619;28;20016;-40
2023/07/15 11:41:41;;;;;;;1.60;1.50;;;33.60;99.90;;;;;;5060215;28;20114;-41
2023/07/15 11:44:15;;;;;;;1.70;1.60;;;33.70;99.90;;;;;;5054638;28;20013;-41
2023/07/15 11:46:43;;;;;;;1.80;1.60;;;33.90;99.90;;;;;;5059045;28;20484;-40
2023/07/15 11:49:09;;;;;;;4.45;1.80;;;34.00;99.90;;;;;;5062282;28;20358;-41
2023/07/15 11:51:37;;;;;;;1.65;1.55;;;34.30;99.90;;;;;;5055265;28;20044;-38
2023/07/15 11:54:08;;;;;;;1.60;1.30;;;34.50;99.90;;;;;;5062205;28;20047;-41
2023/07/15 11:56:42;;;;;;;2.17;1.45;;;34.60;99.90;;;;;;5055938;28;20487;-41
2023/07/15 11:59:10;;;;;;;1.83;1.52;;;34.60;99.90;;;;;;5056857;28;20028;-41
2023/07/15 12:01:37;;;;;;;1.75;1.60;;;34.80;99.90;;;;;;5060668;28;20513;-40
2023/07/15 12:04:21;;;;;;;1.75;1.65;;;34.60;99.90;;;;;;5058074;28;20739;-41
2023/07/15 12:06:48;;;;;;;1.67;1.52;;;34.90;99.90;;;;;;5062959;28;20111;-41
2023/07/15 12:09:17;;;;;;;1.60;1.50;;;34.40;99.90;;;;;;5059254;28;20387;-39
2023/07/15 12:11:43;;;;;;;2.33;1.67;;;34.70;99.90;;;;;;5062367;28;20040;-41
2023/07/15 12:14:09;;;;;;;1.87;1.73;;;34.90;99.90;;;;;;5060630;28;20126;-39
2023/07/15 12:16:37;;;;;;;1.55;1.33;;;34.80;99.90;;;;;;5057741;28;20390;-41
2023/07/15 12:19:04;;;;;;;1.45;1.35;;;34.90;99.90;;;;;;5062781;28;20546;-41
2023/07/15 12:21:30;;;;;;;1.70;1.60;;;35.00;99.90;;;;;;5061020;28;20115;-41
2023/07/15 12:23:57;;;;;;;1.42;1.33;;;34.80;99.90;;;;;;5055241;28;20041;-41
2023/07/15 12:26:22;;;;;;;1.55;1.45;;;35.10;99.90;;;;;;5061610;28;20432;-41
2023/07/15 12:28:48;;;;;;;1.45;1.20;;;35.40;99.90;;;;;;5061106;28;20029;-40
2023/07/15 12:31:16;;;;;;;2.05;1.40;;;35.50;99.90;;;;;;5061246;28;20041;-41
2023/07/15 12:33:42;;;;;;;1.58;1.48;;;35.30;99.90;;;;;;5065703;28;20555;-41
2023/07/15 12:36:10;;;;;;;2.10;1.48;;;35.20;99.90;;;;;;5062142;28;20074;-40
2023/07/15 12:38:36;;;;;;;1.48;1.38;;;34.70;99.90;;;;;;5055762;28;20090;-40
2023/07/15 12:41:06;;;;;;;1.60;1.50;;;34.00;99.90;;;;;;5062052;28;20355;-40
2023/07/15 12:43:32;;;;;;;2.28;1.50;;;34.20;99.90;;;;;;5055139;28;20433;-39
2023/07/15 12:45:58;;;;;;;4.35;1.73;;;34.70;99.90;;;;;;5065319;28;20040;-41
2023/07/15 12:48:24;;;;;;;2.00;1.40;;;34.60;99.90;;;;;;5065561;28;20501;-40